LFOH/LEH METAR and TAF weather

Enter ICAO airport designator
Station Type Date Time Source
LFOH METAR 2022/06/27 17:30 UTC NOAA

LFOH 271730Z AUTO 32009KT CAVOK 16/12 Q1020 BECMG 25013KT


Station Type Date Time Source
LFOH Decoded METAR 2022/06/27 17:30 UTC NOAA

La Heve, France (LFOH) 49-31N 000-04E 103M
Jun 27, 2022 - 01:30 PM EDT / 2022.06.27 1730 UTC
Wind: from the NW (320 degrees) at 10 MPH (9 KT):0
Visibility: greater than 7 mile(s):0
Temperature: 60 F (16 C)
Dew Point: 53 F (12 C)
Relative Humidity: 77%
Pressure (altimeter): 30.12 in. Hg (1020 hPa)
ob: LFOH 271730Z AUTO 32009KT CAVOK 16/12 Q1020 BECMG 25013KT
cycle: 17

Station Type Date Time Source
LFOH TAF 2022/06/27 12:21 UTC NOAA

TAF LFOH 271100Z 2712/2812 25013KT CAVOK

Example: see airport list